createdAt,value
2017-11-17T00:00:54.641Z,10.00
2017-11-17T00:03:22.901Z,10.00
2017-11-17T00:05:51.200Z,10.00
2017-11-17T00:08:19.456Z,9.90
2017-11-17T00:10:47.699Z,9.90
2017-11-17T00:13:16.000Z,10.00
2017-11-17T00:15:44.256Z,10.10
2017-11-17T00:18:13.609Z,10.00
2017-11-17T00:20:42.265Z,10.00
2017-11-17T00:23:10.521Z,9.90
2017-11-17T00:25:38.813Z,9.90
2017-11-17T00:28:07.073Z,9.90
2017-11-17T00:30:35.369Z,10.00
2017-11-17T00:33:04.717Z,9.90
2017-11-17T00:35:33.693Z,9.90
2017-11-17T00:38:01.996Z,9.80
2017-11-17T00:40:30.261Z,9.70
2017-11-17T00:42:58.516Z,9.80
2017-11-17T00:45:26.801Z,9.80
2017-11-17T00:47:55.092Z,9.80
2017-11-17T00:50:23.759Z,9.80
2017-11-17T00:52:52.021Z,9.80
2017-11-17T00:55:20.313Z,9.90
2017-11-17T00:57:48.581Z,10.00
2017-11-17T01:00:16.837Z,9.90
2017-11-17T01:02:45.120Z,9.90
2017-11-17T01:05:14.519Z,9.80
2017-11-17T01:07:42.804Z,9.80
2017-11-17T01:10:11.092Z,9.90
2017-11-17T01:12:39.352Z,9.70
2017-11-17T01:15:07.644Z,9.70
2017-11-17T01:17:35.900Z,9.80
2017-11-17T01:20:04.212Z,9.90
2017-11-17T01:22:32.473Z,9.80
2017-11-17T01:25:00.731Z,9.70
2017-11-17T01:27:29.024Z,9.60
2017-11-17T01:29:57.280Z,9.70
2017-11-17T01:32:25.567Z,9.70
2017-11-17T01:34:54.980Z,9.70
2017-11-17T01:37:23.953Z,9.60
2017-11-17T01:39:52.244Z,9.60
2017-11-17T01:42:20.502Z,9.50
2017-11-17T01:44:48.889Z,9.60
2017-11-17T01:47:17.156Z,9.60
2017-11-17T01:49:45.412Z,9.70
2017-11-17T01:52:13.805Z,9.70
2017-11-17T01:54:43.148Z,9.60
2017-11-17T01:57:11.407Z,9.50
2017-11-17T01:59:39.708Z,9.50
2017-11-17T02:02:19.965Z,9.60
2017-11-17T02:04:48.232Z,9.60
2017-11-17T02:07:19.910Z,9.50
2017-11-17T02:09:47.413Z,9.50
2017-11-17T02:12:15.668Z,9.40
2017-11-17T02:14:43.952Z,9.50
2017-11-17T02:17:12.231Z,9.50
2017-11-17T02:19:40.557Z,9.50
2017-11-17T02:22:08.842Z,9.30
2017-11-17T02:24:37.098Z,9.40
2017-11-17T02:27:05.375Z,9.40
2017-11-17T02:29:33.636Z,9.40
2017-11-17T02:32:01.919Z,9.40
2017-11-17T02:34:30.162Z,9.40
2017-11-17T02:36:58.456Z,9.50
2017-11-17T02:39:26.708Z,9.30
2017-11-17T02:41:56.165Z,9.40
2017-11-17T02:44:24.452Z,9.50
2017-11-17T02:46:52.708Z,9.50
2017-11-17T02:49:20.981Z,9.30
2017-11-17T02:51:49.267Z,9.30
2017-11-17T02:54:17.517Z,9.20
2017-11-17T02:56:45.775Z,9.20
2017-11-17T02:59:14.048Z,9.30
2017-11-17T03:01:42.999Z,9.20
2017-11-17T03:04:11.251Z,9.20
2017-11-17T03:06:39.528Z,9.20
2017-11-17T03:09:07.778Z,9.20
2017-11-17T03:11:36.063Z,9.00
2017-11-17T03:14:04.663Z,9.00
2017-11-17T03:16:32.908Z,9.00
2017-11-17T03:19:00.420Z,9.00
2017-11-17T03:21:28.664Z,9.10
2017-11-17T03:23:56.953Z,9.20
2017-11-17T03:26:31.579Z,9.10
2017-11-17T03:28:59.858Z,8.90
2017-11-17T03:31:28.112Z,8.90
2017-11-17T03:33:55.631Z,8.90
2017-11-17T03:36:25.380Z,9.10
2017-11-17T03:38:54.640Z,8.90
2017-11-17T03:41:22.926Z,8.90
2017-11-17T03:43:51.172Z,8.80
2017-11-17T03:46:19.456Z,8.80
2017-11-17T03:48:47.743Z,8.70
2017-11-17T03:51:15.996Z,8.70
2017-11-17T03:53:44.241Z,8.60
2017-11-17T03:56:13.352Z,8.60
2017-11-17T03:58:40.827Z,8.60
2017-11-17T04:01:09.076Z,8.70
2017-11-17T04:03:37.361Z,8.60
2017-11-17T04:06:05.633Z,8.60
2017-11-17T04:08:33.888Z,8.60
2017-11-17T04:11:02.168Z,8.60
2017-11-17T04:13:30.417Z,8.50
2017-11-17T04:15:58.697Z,8.60
2017-11-17T04:18:26.950Z,8.50
2017-11-17T04:21:01.140Z,8.40
2017-11-17T04:23:29.425Z,8.40
2017-11-17T04:25:57.707Z,8.30
2017-11-17T04:28:25.983Z,8.40
2017-11-17T04:30:55.204Z,8.40
2017-11-17T04:33:23.452Z,8.40
2017-11-17T04:35:51.734Z,8.40
2017-11-17T04:38:20.014Z,8.40
2017-11-17T04:40:48.265Z,8.40
2017-11-17T04:43:16.546Z,8.20
2017-11-17T04:45:44.795Z,8.20
2017-11-17T04:48:14.029Z,8.20
2017-11-17T04:50:43.688Z,8.30
2017-11-17T04:53:12.328Z,8.20
2017-11-17T04:55:40.591Z,8.00
2017-11-17T04:58:08.868Z,8.00
2017-11-17T05:00:37.116Z,8.10
2017-11-17T05:03:05.396Z,8.00
2017-11-17T05:05:33.643Z,8.00
2017-11-17T05:08:01.931Z,7.90
2017-11-17T05:10:30.190Z,8.00
2017-11-17T05:12:58.435Z,8.10
2017-11-17T05:15:26.703Z,8.10
2017-11-17T05:17:56.073Z,8.00
2017-11-17T05:20:24.327Z,8.00
2017-11-17T05:22:52.578Z,7.90
2017-11-17T05:25:20.861Z,8.00
2017-11-17T05:27:49.100Z,8.00
2017-11-17T05:30:17.380Z,7.90
2017-11-17T05:32:45.633Z,7.90
2017-11-17T05:35:14.007Z,7.90
2017-11-17T05:37:42.293Z,7.90
2017-11-17T05:40:10.545Z,7.90
2017-11-17T05:42:38.831Z,7.80
2017-11-17T05:45:07.076Z,7.80
2017-11-17T05:47:35.362Z,7.80
2017-11-17T05:50:03.611Z,7.80
2017-11-17T05:52:31.891Z,7.70
2017-11-17T05:55:00.141Z,7.70
2017-11-17T05:57:28.420Z,7.70
2017-11-17T05:59:56.700Z,7.70
2017-11-17T06:02:25.969Z,7.60
2017-11-17T06:04:57.388Z,7.60
2017-11-17T06:07:25.665Z,7.60
2017-11-17T06:09:55.043Z,7.60
2017-11-17T06:12:24.115Z,7.60
2017-11-17T06:14:52.392Z,7.60
2017-11-17T06:17:20.648Z,7.60
2017-11-17T06:19:48.919Z,7.50
2017-11-17T06:22:17.191Z,7.50
2017-11-17T06:24:45.427Z,7.50
2017-11-17T06:27:14.860Z,7.40
2017-11-17T06:29:44.291Z,7.40
2017-11-17T06:32:13.448Z,7.40
2017-11-17T06:34:42.321Z,7.40
2017-11-17T06:37:10.575Z,7.40
2017-11-17T06:39:38.856Z,7.30
2017-11-17T06:42:07.101Z,7.30
2017-11-17T06:44:35.393Z,7.30
2017-11-17T06:47:03.665Z,7.20
2017-11-17T06:49:31.952Z,7.20
2017-11-17T06:52:00.191Z,7.20
2017-11-17T06:54:28.440Z,7.30
2017-11-17T06:56:56.723Z,7.20
2017-11-17T06:59:25.892Z,7.20
2017-11-17T07:01:55.087Z,7.10
2017-11-17T07:04:23.332Z,7.00
2017-11-17T07:06:51.575Z,7.00
2017-11-17T07:09:19.856Z,7.00
2017-11-17T07:11:48.137Z,7.00
2017-11-17T07:14:16.387Z,6.90
2017-11-17T07:16:44.678Z,6.90
2017-11-17T07:19:12.933Z,7.00
2017-11-17T07:21:41.215Z,6.90
2017-11-17T07:24:09.464Z,6.90
2017-11-17T07:26:37.707Z,6.90
2017-11-17T07:29:05.976Z,6.90
2017-11-17T07:31:35.275Z,7.00
2017-11-17T07:34:03.556Z,6.90
2017-11-17T07:36:31.812Z,6.90
2017-11-17T07:39:00.069Z,6.80
2017-11-17T07:41:28.343Z,6.80
2017-11-17T07:43:56.658Z,6.80
2017-11-17T07:46:24.933Z,6.80
2017-11-17T07:48:53.209Z,6.90
2017-11-17T07:51:42.383Z,6.90
2017-11-17T07:54:10.666Z,6.90
2017-11-17T07:56:38.907Z,6.90
2017-11-17T07:59:07.197Z,6.90
2017-11-17T08:01:43.304Z,6.90
2017-11-17T08:04:11.605Z,6.90
2017-11-17T08:06:40.699Z,6.90
2017-11-17T08:09:08.941Z,6.90
2017-11-17T08:11:37.224Z,6.90
2017-11-17T08:14:05.991Z,6.90
2017-11-17T08:16:35.171Z,6.90
2017-11-17T08:19:02.776Z,6.90
2017-11-17T08:21:31.029Z,7.00
2017-11-17T08:23:59.271Z,7.00
2017-11-17T08:26:37.468Z,7.00
2017-11-17T08:29:05.715Z,7.00
2017-11-17T08:31:35.952Z,7.00
2017-11-17T08:34:05.359Z,7.00
2017-11-17T08:36:35.636Z,7.00
2017-11-17T08:39:04.884Z,7.00
2017-11-17T08:41:33.128Z,7.00
2017-11-17T08:44:01.413Z,7.10
2017-11-17T08:46:39.854Z,7.20
2017-11-17T08:49:08.128Z,7.20
2017-11-17T08:51:36.371Z,7.20
2017-11-17T08:54:04.636Z,7.20
2017-11-17T08:56:48.607Z,7.20
2017-11-17T08:59:16.880Z,7.30
2017-11-17T09:01:45.126Z,7.30
2017-11-17T09:04:14.080Z,7.40
2017-11-17T09:06:42.351Z,7.40
2017-11-17T09:09:10.609Z,7.40
2017-11-17T09:11:38.883Z,7.40
2017-11-17T09:14:16.986Z,7.40
2017-11-17T09:16:45.272Z,7.50
2017-11-17T09:19:14.787Z,7.60
2017-11-17T09:21:46.875Z,7.60
2017-11-17T09:24:15.133Z,7.60
2017-11-17T09:27:07.068Z,7.60
2017-11-17T09:29:36.427Z,7.60
2017-11-17T09:32:05.021Z,7.70
2017-11-17T09:34:34.924Z,7.70
2017-11-17T09:37:03.252Z,7.70
2017-11-17T09:39:31.513Z,7.60
2017-11-17T09:41:59.760Z,7.50
2017-11-17T09:44:28.031Z,7.50
2017-11-17T09:46:57.208Z,7.70
2017-11-17T09:49:25.487Z,7.70
2017-11-17T09:51:53.736Z,7.90
2017-11-17T09:54:22.017Z,7.90
2017-11-17T09:56:50.271Z,7.90
2017-11-17T09:59:18.551Z,7.80
2017-11-17T10:01:46.803Z,7.90
2017-11-17T10:04:15.080Z,7.90
2017-11-17T10:06:43.872Z,7.90
2017-11-17T10:09:13.436Z,7.90
2017-11-17T10:11:42.503Z,7.90
2017-11-17T10:14:10.750Z,7.90
2017-11-17T10:16:39.026Z,8.00
2017-11-17T10:19:07.300Z,8.00
2017-11-17T10:21:42.421Z,8.00
2017-11-17T10:24:10.711Z,8.00
2017-11-17T10:26:39.084Z,8.20
2017-11-17T10:29:07.335Z,8.30
2017-11-17T10:31:35.579Z,8.30
2017-11-17T10:34:05.068Z,8.30
2017-11-17T10:36:34.037Z,8.30
2017-11-17T10:39:02.320Z,8.40
2017-11-17T10:41:30.573Z,8.40
2017-11-17T10:43:58.823Z,8.40
2017-11-17T10:46:27.095Z,8.40
2017-11-17T10:48:55.379Z,8.50
2017-11-17T10:51:23.624Z,8.40
2017-11-17T10:53:51.872Z,8.60
2017-11-17T10:56:25.115Z,8.80
2017-11-17T10:58:53.358Z,8.70
2017-11-17T11:01:21.631Z,8.70
2017-11-17T11:03:49.904Z,8.60
2017-11-17T11:06:18.156Z,8.70
2017-11-17T11:08:46.441Z,8.70
2017-11-17T11:11:27.376Z,8.70
2017-11-17T11:13:55.663Z,8.80
2017-11-17T11:16:27.184Z,8.80
2017-11-17T11:18:55.436Z,8.80
2017-11-17T11:21:31.128Z,8.80
2017-11-17T11:23:59.374Z,8.80
2017-11-17T11:26:27.647Z,8.80
2017-11-17T11:28:55.897Z,8.90
2017-11-17T11:31:24.191Z,8.90
2017-11-17T11:33:52.442Z,9.00
2017-11-17T11:36:20.686Z,9.00
2017-11-17T11:38:48.977Z,9.20
2017-11-17T11:41:17.222Z,9.20
2017-11-17T11:43:45.508Z,9.30
2017-11-17T11:46:14.584Z,9.30
2017-11-17T11:48:42.876Z,9.30
2017-11-17T11:51:11.115Z,9.30
2017-11-17T11:53:39.359Z,9.30
2017-11-17T11:56:07.640Z,9.50
2017-11-17T11:58:35.956Z,9.50
2017-11-17T12:01:05.045Z,9.70
2017-11-17T12:03:34.039Z,9.60
2017-11-17T12:06:02.283Z,9.50
2017-11-17T12:08:30.568Z,9.40
2017-11-17T12:10:58.811Z,9.40
2017-11-17T12:13:27.064Z,9.60
2017-11-17T12:15:55.334Z,9.60
2017-11-17T12:18:23.621Z,9.80
2017-11-17T12:20:51.868Z,9.70
2017-11-17T12:23:20.143Z,9.70
2017-11-17T12:25:48.420Z,9.80
2017-11-17T12:28:16.671Z,9.80
2017-11-17T12:30:44.929Z,9.70
2017-11-17T12:33:14.191Z,9.70
2017-11-17T12:35:43.152Z,9.70
2017-11-17T12:38:11.395Z,9.70
2017-11-17T12:40:39.671Z,9.70
2017-11-17T12:43:07.987Z,9.70
2017-11-17T12:45:36.256Z,9.60
2017-11-17T12:48:04.515Z,9.50
2017-11-17T12:50:32.791Z,9.50
2017-11-17T12:53:01.059Z,9.50
2017-11-17T12:55:29.340Z,9.50
2017-11-17T12:57:57.604Z,9.60
2017-11-17T13:00:25.860Z,9.70
2017-11-17T13:02:54.140Z,9.60
2017-11-17T13:05:22.411Z,9.50
2017-11-17T13:07:50.655Z,9.60
2017-11-17T13:10:19.855Z,9.50
2017-11-17T13:12:48.100Z,9.40
2017-11-17T13:15:16.467Z,9.50
2017-11-17T13:17:44.728Z,9.40
2017-11-17T13:20:12.975Z,9.40
2017-11-17T13:22:41.262Z,9.30
2017-11-17T13:25:09.532Z,9.20
2017-11-17T13:27:37.820Z,9.20
2017-11-17T13:30:06.079Z,9.30
2017-11-17T13:32:35.296Z,9.30
2017-11-17T13:35:04.322Z,9.30
2017-11-17T13:37:32.568Z,9.30
2017-11-17T13:40:00.843Z,9.50
2017-11-17T13:42:29.089Z,9.40
2017-11-17T13:44:57.391Z,9.40
2017-11-17T13:47:25.632Z,9.60
2017-11-17T13:49:53.897Z,9.70
2017-11-17T13:52:22.175Z,9.80
2017-11-17T13:54:50.455Z,9.70
2017-11-17T13:57:18.699Z,9.70
2017-11-17T13:59:46.943Z,9.90
2017-11-17T14:02:15.225Z,9.80
2017-11-17T14:04:44.178Z,9.80
2017-11-17T14:07:12.509Z,9.60
2017-11-17T14:09:40.784Z,9.60
2017-11-17T14:12:09.051Z,9.80
2017-11-17T14:14:37.305Z,9.60
2017-11-17T14:17:11.485Z,9.40
2017-11-17T14:19:39.736Z,9.40
2017-11-17T14:22:08.021Z,9.30
2017-11-17T14:24:36.328Z,9.30
2017-11-17T14:27:05.016Z,9.20
2017-11-17T14:29:34.026Z,9.10
2017-11-17T14:32:02.350Z,9.00
2017-11-17T14:34:30.599Z,8.90
2017-11-17T14:36:58.872Z,8.80
2017-11-17T14:39:27.156Z,8.80
2017-11-17T14:41:55.426Z,8.80
2017-11-17T14:44:23.656Z,8.70
2017-11-17T14:46:51.936Z,8.70
2017-11-17T14:49:20.214Z,8.60
2017-11-17T14:51:48.465Z,8.60
2017-11-17T14:54:16.757Z,8.50
2017-11-17T14:56:45.013Z,8.50
2017-11-17T14:59:13.190Z,8.50
2017-11-17T15:01:41.470Z,8.50
2017-11-17T15:04:09.727Z,8.50
2017-11-17T15:06:38.006Z,8.40
2017-11-17T15:09:06.268Z,8.50
2017-11-17T15:11:36.256Z,8.40
2017-11-17T15:14:04.505Z,8.40
2017-11-17T15:16:32.751Z,8.30
2017-11-17T15:19:01.035Z,8.30
2017-11-17T15:21:29.323Z,8.30
2017-11-17T15:23:57.585Z,8.20
2017-11-17T15:26:25.828Z,8.20
2017-11-17T15:28:54.104Z,8.10
2017-11-17T15:31:22.375Z,8.10
2017-11-17T15:33:50.616Z,8.10
2017-11-17T15:36:18.892Z,8.00
2017-11-17T15:38:47.163Z,8.00
2017-11-17T15:41:15.442Z,7.90
2017-11-17T15:43:44.996Z,8.00
2017-11-17T15:46:14.279Z,7.90
2017-11-17T15:48:43.227Z,7.80
2017-11-17T15:51:11.467Z,7.80
2017-11-17T15:53:39.851Z,7.70
2017-11-17T15:56:08.100Z,7.70
2017-11-17T15:58:36.932Z,7.60
2017-11-17T16:01:06.263Z,7.60
2017-11-17T16:03:34.375Z,7.60
2017-11-17T16:06:02.633Z,7.60
2017-11-17T16:08:30.945Z,7.50
2017-11-17T16:10:59.219Z,7.60
2017-11-17T16:13:27.465Z,7.50
2017-11-17T16:15:55.729Z,7.50
2017-11-17T16:18:24.024Z,7.50
2017-11-17T16:20:52.271Z,7.50
2017-11-17T16:23:20.555Z,7.50
2017-11-17T16:25:48.802Z,7.40
2017-11-17T16:28:17.086Z,7.30
2017-11-17T16:30:45.332Z,7.30
2017-11-17T16:33:14.467Z,7.30
2017-11-17T16:35:43.540Z,7.30
2017-11-17T16:38:15.467Z,7.30
2017-11-17T16:40:44.888Z,7.20
2017-11-17T16:43:13.140Z,7.20
2017-11-17T16:45:41.410Z,7.20
2017-11-17T16:48:09.688Z,7.10
2017-11-17T16:50:37.948Z,7.00
2017-11-17T16:53:06.224Z,7.00
2017-11-17T16:55:34.509Z,7.00
2017-11-17T16:58:02.764Z,6.90
2017-11-17T17:00:31.033Z,6.90
2017-11-17T17:02:58.546Z,6.90
2017-11-17T17:05:26.798Z,6.80
2017-11-17T17:07:55.083Z,6.80
2017-11-17T17:10:23.327Z,6.80
2017-11-17T17:12:51.600Z,6.70
2017-11-17T17:15:19.852Z,6.70
2017-11-17T17:17:48.123Z,6.70
2017-11-17T17:20:16.376Z,6.60
2017-11-17T17:22:44.659Z,6.60
2017-11-17T17:25:12.907Z,6.50
2017-11-17T17:27:41.288Z,6.50
2017-11-17T17:30:09.548Z,6.50
2017-11-17T17:32:45.494Z,6.50
2017-11-17T17:35:14.849Z,6.50
2017-11-17T17:37:43.529Z,6.40
2017-11-17T17:40:12.543Z,6.40
2017-11-17T17:42:40.804Z,6.40
2017-11-17T17:45:09.051Z,6.40
2017-11-17T17:47:37.335Z,6.40
2017-11-17T17:50:05.967Z,6.40
2017-11-17T17:52:35.127Z,6.30
2017-11-17T17:55:05.145Z,6.30
2017-11-17T17:57:34.109Z,6.30
2017-11-17T18:00:02.396Z,6.30
2017-11-17T18:02:30.650Z,6.30
2017-11-17T18:04:58.934Z,6.30
2017-11-17T18:07:27.224Z,6.30
2017-11-17T18:09:55.474Z,6.20
2017-11-17T18:12:23.768Z,6.20
2017-11-17T18:14:52.024Z,6.20
2017-11-17T18:17:21.265Z,6.20
2017-11-17T18:19:49.548Z,6.20
2017-11-17T18:22:17.880Z,6.20
2017-11-17T18:24:46.128Z,6.10
2017-11-17T18:27:20.075Z,6.10
2017-11-17T18:29:48.404Z,6.10
2017-11-17T18:35:11.104Z,6.10
2017-11-17T18:37:39.401Z,6.00
2017-11-17T18:40:07.685Z,6.00
2017-11-17T18:42:36.070Z,5.90
2017-11-17T18:45:04.900Z,5.90
2017-11-17T18:47:33.195Z,5.90
2017-11-17T18:50:01.874Z,5.80
2017-11-17T18:52:55.778Z,5.80
2017-11-17T18:55:24.110Z,5.70
2017-11-17T18:57:52.384Z,5.70
2017-11-17T19:00:20.681Z,5.70
2017-11-17T19:02:48.856Z,5.60
2017-11-17T19:05:17.159Z,5.60
2017-11-17T19:07:45.404Z,5.60
2017-11-17T19:10:14.125Z,5.50
2017-11-17T19:12:43.426Z,5.50
2017-11-17T19:15:11.686Z,5.60
2017-11-17T19:17:39.963Z,5.50
2017-11-17T19:20:08.255Z,5.50
2017-11-17T19:22:36.500Z,5.40
2017-11-17T19:25:05.688Z,5.40
2017-11-17T19:27:34.730Z,5.40
2017-11-17T19:30:02.989Z,5.40
2017-11-17T19:32:31.295Z,5.40
2017-11-17T19:34:59.568Z,5.50
2017-11-17T19:37:27.843Z,5.50
2017-11-17T19:39:56.178Z,5.50
2017-11-17T19:42:24.418Z,5.40
2017-11-17T19:44:52.688Z,5.40
2017-11-17T19:47:20.981Z,5.40
2017-11-17T19:49:49.227Z,5.40
2017-11-17T19:52:17.496Z,5.40
2017-11-17T19:54:45.834Z,5.40
2017-11-17T19:57:17.471Z,5.40
2017-11-17T19:59:45.755Z,5.40
2017-11-17T20:02:14.839Z,5.40
2017-11-17T20:04:43.175Z,5.40
2017-11-17T20:07:11.439Z,5.40
2017-11-17T20:09:39.729Z,5.50
2017-11-17T20:12:08.104Z,5.40
2017-11-17T20:14:36.364Z,5.50
2017-11-17T20:17:05.047Z,5.50
2017-11-17T20:19:34.087Z,5.50
2017-11-17T20:22:02.371Z,5.50
2017-11-17T20:24:30.653Z,5.50
2017-11-17T20:26:58.943Z,5.50
2017-11-17T20:29:27.249Z,5.60
2017-11-17T20:31:55.572Z,5.60
2017-11-17T20:34:23.843Z,5.60
2017-11-17T20:36:52.187Z,5.70
2017-11-17T20:39:20.484Z,5.70
2017-11-17T20:41:48.747Z,5.60
2017-11-17T20:44:16.333Z,5.60
2017-11-17T20:46:44.633Z,5.60
2017-11-17T20:49:13.819Z,5.70
2017-11-17T20:51:42.564Z,5.70
2017-11-17T20:54:10.865Z,5.80
2017-11-17T20:56:39.170Z,5.80
2017-11-17T20:59:07.496Z,5.80
2017-11-17T21:01:39.669Z,5.80
2017-11-17T21:04:07.977Z,5.80
2017-11-17T21:06:36.227Z,5.90
2017-11-17T21:09:04.867Z,5.80
2017-11-17T21:11:33.158Z,5.90
2017-11-17T21:14:01.465Z,5.80
2017-11-17T21:16:29.803Z,5.80
2017-11-17T21:18:58.116Z,5.80
2017-11-17T21:21:27.412Z,5.80
2017-11-17T21:23:55.675Z,5.80
2017-11-17T21:26:24.012Z,5.80
2017-11-17T21:28:59.631Z,5.80
2017-11-17T21:31:27.880Z,5.70
2017-11-17T21:34:10.620Z,5.70
2017-11-17T21:36:38.108Z,5.70
2017-11-17T21:42:07.970Z,5.70
2017-11-17T21:44:36.308Z,5.60
2017-11-17T21:47:05.095Z,5.60
2017-11-17T21:49:34.191Z,5.60
2017-11-17T21:52:02.461Z,5.60
2017-11-17T21:54:32.680Z,5.60
2017-11-17T21:57:00.939Z,5.60
2017-11-17T21:59:29.221Z,5.50
2017-11-17T22:01:57.471Z,5.50
2017-11-17T22:04:25.767Z,5.50
2017-11-17T22:06:54.027Z,5.50
2017-11-17T22:09:22.272Z,5.50
2017-11-17T22:11:50.560Z,5.50
2017-11-17T22:14:18.816Z,5.50
2017-11-17T22:16:47.098Z,5.50
2017-11-17T22:19:15.344Z,5.50
2017-11-17T22:21:44.523Z,5.50
2017-11-17T22:24:13.523Z,5.50
2017-11-17T22:26:41.804Z,5.50
2017-11-17T22:29:10.055Z,5.50
2017-11-17T22:31:38.332Z,5.50
2017-11-17T22:34:06.588Z,5.40
2017-11-17T22:36:35.552Z,5.40
2017-11-17T22:39:04.463Z,5.50
2017-11-17T22:41:32.765Z,5.50
2017-11-17T22:44:01.012Z,5.60
2017-11-17T22:46:29.294Z,5.50
2017-11-17T22:48:57.566Z,5.50
2017-11-17T22:51:25.820Z,5.50
2017-11-17T22:53:54.108Z,5.50
2017-11-17T22:56:22.363Z,5.50
2017-11-17T22:59:00.243Z,5.40
2017-11-17T23:01:28.492Z,5.40
2017-11-17T23:03:56.790Z,5.50
2017-11-17T23:06:25.049Z,5.40
2017-11-17T23:08:53.303Z,5.40
2017-11-17T23:11:21.587Z,5.40
2017-11-17T23:13:49.881Z,5.40
2017-11-17T23:19:14.912Z,5.40
2017-11-17T23:21:43.171Z,5.40
2017-11-17T23:24:11.441Z,5.30
2017-11-17T23:26:39.722Z,5.30
2017-11-17T23:29:07.989Z,5.30
2017-11-17T23:31:36.273Z,5.20
2017-11-17T23:34:04.907Z,5.20
2017-11-17T23:36:43.892Z,5.10
2017-11-17T23:39:12.682Z,5.10
2017-11-17T23:41:40.932Z,5.00
2017-11-17T23:44:09.219Z,5.00
2017-11-17T23:46:37.505Z,5.00
2017-11-17T23:49:06.074Z,4.90
2017-11-17T23:51:34.874Z,4.90
2017-11-17T23:54:03.138Z,4.90
2017-11-17T23:56:31.431Z,4.90
2017-11-17T23:58:59.712Z,4.80
